Time;durP1;ratioP1;P1;durP2;ratioP2;P2;SDS_P1;SDS_P2;PMS_P1;PMS_P2;Temp;Humidity;BMP_temperature;BMP_pressure;BME280_temperature;BME280_humidity;BME280_pressure;Samples;Min_cycle;Max_cycle;Signal;HPM_P1;HPM_P2
2021/11/29 00:01:09;;;;;;;;;;;;;;;0.68;87.58;94840.09;5096588;28;20037;-73
2021/11/29 00:03:35;;;;;;;;;;;;;;;0.67;87.70;94837.69;5096406;28;20413;-74
2021/11/29 00:06:01;;;;;;;;;;;;;;;0.67;87.69;94838.47;5096366;28;19953;-73
2021/11/29 00:08:27;;;;;;;;;;;;;;;0.67;87.82;94846.22;5096586;28;19954;-73
2021/11/29 00:10:53;;;;;;;;;;;;;;;0.69;87.85;94838.28;5096258;28;20029;-73
2021/11/29 00:13:19;;;;;;;;;;;;;;;0.68;87.96;94847.03;5096226;28;20047;-73
2021/11/29 00:15:45;;;;;;;;;;;;;;;0.69;87.94;94846.03;5071475;28;20322;-73
2021/11/29 00:18:11;;;;;;;;;;;;;;;0.67;87.73;94850.59;5096243;28;20046;-73
2021/11/29 00:20:37;;;;;;;;;;;;;;;0.65;87.88;94850.00;5096277;28;19953;-73
2021/11/29 00:23:03;;;;;;;;;;;;;;;0.58;87.95;94848.19;5096700;28;20367;-72
2021/11/29 00:25:29;;;;;;;;;;;;;;;0.55;88.02;94860.69;5096167;28;19984;-74
2021/11/29 00:27:55;;;;;;;;;;;;;;;0.45;87.97;94857.69;5095980;28;19962;-73
2021/11/29 00:30:20;;;;;;;;;;;;;;;0.39;88.88;94865.19;5096030;28;20053;-73
2021/11/29 00:32:46;;;;;;;;;;;;;;;0.41;89.65;94865.00;5096023;28;19953;-73
2021/11/29 00:35:13;;;;;;;;;;;;;;;0.41;89.20;94872.75;5095804;28;20369;-73
2021/11/29 00:37:39;;;;;;;;;;;;;;;0.41;89.25;94867.59;5096337;28;19952;-73
2021/11/29 00:40:06;;;;;;;;;;;;;;;0.44;89.13;94872.34;5095717;28;20088;-73
2021/11/29 00:42:32;;;;;;;;;;;;;;;0.48;89.54;94880.50;5094435;28;19966;-73
2021/11/29 00:44:58;;;;;;;;;;;;;;;0.49;88.92;94885.47;5095594;28;20049;-74
2021/11/29 00:47:24;;;;;;;;;;;;;;;0.49;89.20;94882.88;5096175;28;20041;-73
2021/11/29 00:49:50;;;;;;;;;;;;;;;0.48;89.27;94886.44;5095485;28;19960;-73
2021/11/29 00:52:16;;;;;;;;;;;;;;;0.46;88.67;94885.06;5095503;28;19955;-74
2021/11/29 00:54:42;;;;;;;;;;;;;;;0.44;89.30;94890.41;5095508;28;19987;-73
2021/11/29 00:57:08;;;;;;;;;;;;;;;0.43;88.73;94888.03;5095566;28;19957;-73
2021/11/29 00:59:34;;;;;;;;;;;;;;;0.39;88.48;94893.56;5095503;28;19965;-74
2021/11/29 01:02:00;;;;;;;;;;;;;;;0.33;88.78;94899.47;5095200;28;20043;-74
2021/11/29 01:04:26;;;;;;;;;;;;;;;0.27;88.42;94896.88;5095541;28;19956;-73
2021/11/29 01:06:51;;;;;;;;;;;;;;;0.24;89.27;94903.22;5094489;28;19959;-74
2021/11/29 01:09:17;;;;;;;;;;;;;;;0.25;88.84;94901.44;5095674;28;19990;-73
2021/11/29 01:11:43;;;;;;;;;;;;;;;0.24;89.33;94903.22;5094977;28;20430;-73
2021/11/29 01:14:09;;;;;;;;;;;;;;;0.28;89.66;94899.28;5095178;28;19997;-73
2021/11/29 01:16:35;;;;;;;;;;;;;;;0.30;89.28;94910.19;5094928;28;19953;-73
2021/11/29 01:19:01;;;;;;;;;;;;;;;0.29;89.14;94911.16;5093544;28;20006;-73
2021/11/29 01:21:27;;;;;;;;;;;;;;;0.25;88.97;94907.38;5095323;28;19956;-73
2021/11/29 01:23:53;;;;;;;;;;;;;;;0.24;89.20;94910.16;5094679;28;19973;-73
2021/11/29 01:26:19;;;;;;;;;;;;;;;0.20;89.15;94905.38;5094910;28;19958;-73
2021/11/29 01:28:45;;;;;;;;;;;;;;;0.18;89.30;94909.91;5076682;28;19971;-74
2021/11/29 01:31:11;;;;;;;;;;;;;;;0.19;89.40;94915.91;5094824;28;20406;-73
2021/11/29 01:33:36;;;;;;;;;;;;;;;0.22;89.31;94907.75;5095197;28;19968;-73
2021/11/29 01:36:03;;;;;;;;;;;;;;;0.23;88.93;94911.13;5093515;28;19967;-74
2021/11/29 01:38:29;;;;;;;;;;;;;;;0.22;88.81;94907.75;5072887;28;19967;-73
2021/11/29 01:40:55;;;;;;;;;;;;;;;0.21;89.17;94913.94;5094662;28;19959;-73
2021/11/29 01:43:21;;;;;;;;;;;;;;;0.20;88.96;94913.09;5094425;28;19974;-73
2021/11/29 01:45:48;;;;;;;;;;;;;;;0.20;89.10;94920.06;5094384;28;19959;-73
2021/11/29 01:48:15;;;;;;;;;;;;;;;0.22;88.88;94927.59;5094570;28;20320;-73
2021/11/29 01:50:43;;;;;;;;;;;;;;;0.19;88.51;94939.09;5094507;28;19958;-73
2021/11/29 01:53:09;;;;;;;;;;;;;;;0.08;88.76;94935.25;5094575;28;20406;-73
2021/11/29 01:55:36;;;;;;;;;;;;;;;-0.02;89.17;94935.59;5094362;28;19981;-73
2021/11/29 01:58:03;;;;;;;;;;;;;;;-0.09;89.59;94939.09;5094168;28;19959;-73
2021/11/29 02:00:30;;;;;;;;;;;;;;;-0.14;90.42;94949.19;5094210;28;20343;-73
2021/11/29 02:02:57;;;;;;;;;;;;;;;-0.13;90.58;94948.19;5093315;28;19972;-73
2021/11/29 02:05:23;;;;;;;;;;;;;;;-0.09;91.01;94954.56;5094156;28;19949;-73
2021/11/29 02:07:50;;;;;;;;;;;;;;;-0.03;90.89;94951.25;5094242;28;19960;-73
2021/11/29 02:10:17;;;;;;;;;;;;;;;0.04;90.38;94953.84;5094001;28;20418;-73
2021/11/29 02:12:43;;;;;;;;;;;;;;;0.09;90.29;94951.53;5094224;28;19967;-73
2021/11/29 02:15:13;;;;;;;;;;;;;;;0.17;89.91;94953.97;5092756;28;19957;-73
2021/11/29 02:17:39;;;;;;;;;;;;;;;0.21;89.67;94952.59;5094311;28;19968;-73
2021/11/29 02:20:05;;;;;;;;;;;;;;;0.26;89.46;94957.19;5076167;28;20343;-73
2021/11/29 02:22:32;;;;;;;;;;;;;;;0.30;89.31;94956.59;5094078;28;19974;-73
2021/11/29 02:24:58;;;;;;;;;;;;;;;0.30;88.92;94959.19;5093982;28;20442;-73
2021/11/29 02:27:24;;;;;;;;;;;;;;;0.30;88.65;94955.81;5094086;28;19953;-73
2021/11/29 02:29:53;;;;;;;;;;;;;;;0.29;88.67;94957.56;5093978;28;19966;-74
2021/11/29 02:32:20;;;;;;;;;;;;;;;0.30;89.04;94955.81;5073744;28;19957;-73
2021/11/29 02:34:49;;;;;;;;;;;;;;;0.28;88.60;94963.72;5093603;28;20329;-73
2021/11/29 02:37:15;;;;;;;;;;;;;;;0.25;88.50;94958.94;5093647;28;19949;-73
2021/11/29 02:39:41;;;;;;;;;;;;;;;0.20;88.24;94966.44;5093686;28;19963;-73
2021/11/29 02:42:08;;;;;;;;;;;;;;;0.16;88.86;94975.53;5093746;28;19950;-73
2021/11/29 02:44:34;;;;;;;;;;;;;;;0.14;89.37;94978.31;5093606;28;19955;-73
2021/11/29 02:47:00;;;;;;;;;;;;;;;0.19;89.54;94981.13;5093725;28;20417;-73
2021/11/29 02:49:26;;;;;;;;;;;;;;;0.20;88.54;94971.59;5093630;28;19960;-73
2021/11/29 02:51:54;;;;;;;;;;;;;;;0.20;88.68;94984.50;5093702;28;19954;-73
2021/11/29 02:54:24;;;;;;;;;;;;;;;0.23;88.73;94983.31;5092470;28;19982;-73
2021/11/29 02:56:52;;;;;;;;;;;;;;;0.23;88.38;94994.41;5093551;28;19966;-73
2021/11/29 02:59:20;;;;;;;;;;;;;;;0.24;88.18;94998.59;5094145;28;20315;-73
2021/11/29 03:01:48;;;;;;;;;;;;;;;0.23;87.81;94998.78;5093474;28;20295;-73
2021/11/29 03:04:14;;;;;;;;;;;;;;;0.23;87.77;95006.53;5093477;28;19967;-74
2021/11/29 03:06:39;;;;;;;;;;;;;;;0.23;87.42;95006.53;5093619;28;20307;-74
2021/11/29 03:09:06;;;;;;;;;;;;;;;0.19;87.07;95006.91;5093797;28;20035;-73
2021/11/29 03:11:32;;;;;;;;;;;;;;;0.16;87.18;95012.44;5093334;28;19960;-74
2021/11/29 03:13:58;;;;;;;;;;;;;;;0.10;86.72;95017.53;5093440;28;19952;-73
2021/11/29 03:16:24;;;;;;;;;;;;;;;0.05;87.38;95019.91;5093672;28;19960;-73
2021/11/29 03:18:50;;;;;;;;;;;;;;;0.04;87.02;95026.00;5093683;28;19964;-75
2021/11/29 03:21:18;;;;;;;;;;;;;;;0.03;87.50;95034.75;5093423;28;19953;-74
2021/11/29 03:23:45;;;;;;;;;;;;;;;0.02;87.65;95039.09;5092817;28;20044;-74
2021/11/29 03:26:14;;;;;;;;;;;;;;;0.04;87.55;95039.69;5044485;28;19962;-73
2021/11/29 03:28:41;;;;;;;;;;;;;;;0.05;87.94;95043.88;5093346;28;19960;-73
2021/11/29 03:31:07;;;;;;;;;;;;;;;0.05;87.84;95045.66;5096521;28;19958;-74
2021/11/29 03:33:34;;;;;;;;;;;;;;;0.01;86.71;95049.59;5096954;28;20439;-73
2021/11/29 03:36:01;;;;;;;;;;;;;;;-0.07;86.57;95053.09;5096901;28;19960;-73
2021/11/29 03:38:27;;;;;;;;;;;;;;;-0.14;86.43;95057.41;5097490;28;19950;-73
2021/11/29 03:40:53;;;;;;;;;;;;;;;-0.22;86.44;95060.91;5097017;28;20426;-73
2021/11/29 03:43:19;;;;;;;;;;;;;;;-0.30;86.93;95061.81;5096969;28;20430;-73
2021/11/29 03:45:45;;;;;;;;;;;;;;;-0.33;86.95;95063.97;5096707;28;20041;-73
2021/11/29 03:48:14;;;;;;;;;;;;;;;-0.39;87.43;95062.13;5097073;28;19965;-73
2021/11/29 03:50:40;;;;;;;;;;;;;;;-0.37;88.08;95066.09;5096577;28;19949;-73
2021/11/29 03:53:06;;;;;;;;;;;;;;;-0.31;88.41;95072.31;5096811;28;20313;-73
2021/11/29 03:55:31;;;;;;;;;;;;;;;-0.25;88.24;95072.38;5096407;28;20496;-73
2021/11/29 03:57:57;;;;;;;;;;;;;;;-0.18;88.09;95079.38;5096816;28;19960;-73
2021/11/29 04:00:23;;;;;;;;;;;;;;;-0.12;87.89;95081.22;5096697;28;19991;-73
2021/11/29 04:02:49;;;;;;;;;;;;;;;-0.08;87.52;95090.94;5096326;28;19969;-73
2021/11/29 04:05:18;;;;;;;;;;;;;;;-0.05;87.37;95084.63;5096626;28;20411;-73
2021/11/29 04:07:44;;;;;;;;;;;;;;;-0.04;86.98;95084.44;5096340;28;19959;-73
2021/11/29 04:10:10;;;;;;;;;;;;;;;-0.02;86.87;95087.63;5095622;28;20380;-73
2021/11/29 04:12:37;;;;;;;;;;;;;;;-0.03;86.69;95088.59;5096350;28;19955;-73
2021/11/29 04:15:03;;;;;;;;;;;;;;;0.00;86.46;95095.19;5096169;28;20405;-73
2021/11/29 04:17:29;;;;;;;;;;;;;;;0.00;86.44;95095.19;5095170;28;19963;-73
2021/11/29 04:19:55;;;;;;;;;;;;;;;0.01;86.52;95101.13;5078307;28;19953;-73
2021/11/29 04:22:21;;;;;;;;;;;;;;;0.01;86.68;95101.94;5094974;28;19946;-73
2021/11/29 04:24:47;;;;;;;;;;;;;;;0.02;86.51;95103.50;5096061;28;20067;-73
2021/11/29 04:27:13;;;;;;;;;;;;;;;0.03;86.61;95117.22;5096055;28;19952;-73
2021/11/29 04:29:42;;;;;;;;;;;;;;;0.04;86.63;95116.22;5095994;28;20426;-73
2021/11/29 04:32:08;;;;;;;;;;;;;;;0.05;86.60;95122.97;5096048;28;19965;-74
2021/11/29 04:34:35;;;;;;;;;;;;;;;0.05;86.57;95117.81;5095793;28;19956;-73
2021/11/29 04:37:04;;;;;;;;;;;;;;;0.06;86.73;95121.97;5095948;28;19956;-73
2021/11/29 04:39:30;;;;;;;;;;;;;;;0.07;86.81;95115.88;5094987;28;19954;-73
2021/11/29 04:41:56;;;;;;;;;;;;;;;0.08;86.94;95118.22;5094564;28;19958;-73
2021/11/29 04:44:22;;;;;;;;;;;;;;;0.11;87.13;95128.19;5095739;28;20433;-73
2021/11/29 04:46:48;;;;;;;;;;;;;;;0.12;87.11;95122.03;5095486;28;19970;-73
2021/11/29 04:49:14;;;;;;;;;;;;;;;0.14;87.36;95125.22;5096005;28;20325;-73
2021/11/29 04:51:40;;;;;;;;;;;;;;;0.14;87.34;95127.81;5095918;28;20046;-73
2021/11/29 04:54:09;;;;;;;;;;;;;;;0.14;87.52;95129.59;5095726;28;19981;-73
2021/11/29 04:56:35;;;;;;;;;;;;;;;0.14;87.58;95132.16;5095392;28;19969;-73
2021/11/29 04:59:01;;;;;;;;;;;;;;;0.12;87.12;95137.50;5095635;28;19953;-74
2021/11/29 05:01:27;;;;;;;;;;;;;;;0.12;87.24;95147.81;5095437;28;19975;-73
2021/11/29 05:03:53;;;;;;;;;;;;;;;0.13;87.14;95149.41;5095576;28;20407;-73
2021/11/29 05:06:19;;;;;;;;;;;;;;;0.15;87.38;95147.47;5095161;28;19956;-73
2021/11/29 05:08:47;;;;;;;;;;;;;;;0.17;87.31;95155.03;5094737;28;20316;-73
2021/11/29 05:11:13;;;;;;;;;;;;;;;0.18;87.26;95154.81;5095180;28;20010;-73
2021/11/29 05:13:39;;;;;;;;;;;;;;;0.21;87.27;95156.25;5093997;28;19951;-73
2021/11/29 05:16:05;;;;;;;;;;;;;;;0.21;87.40;95156.25;5095155;28;19954;-73
2021/11/29 05:18:31;;;;;;;;;;;;;;;0.22;87.54;95160.41;5095059;28;20326;-73
2021/11/29 05:20:57;;;;;;;;;;;;;;;0.23;87.50;95168.94;5094939;28;19963;-74
2021/11/29 05:23:23;;;;;;;;;;;;;;;0.22;87.47;95162.97;5094838;28;20336;-73
2021/11/29 05:25:49;;;;;;;;;;;;;;;0.20;87.61;95168.31;5094960;28;20324;-73
2021/11/29 05:28:15;;;;;;;;;;;;;;;0.18;87.59;95172.06;5094979;28;20054;-73
2021/11/29 05:30:41;;;;;;;;;;;;;;;0.11;87.82;95176.38;5076720;28;19998;-73
2021/11/29 05:33:07;;;;;;;;;;;;;;;0.08;88.05;95180.09;5094696;28;20046;-73
2021/11/29 05:35:33;;;;;;;;;;;;;;;0.08;88.10;95182.66;5076984;28;20448;-73
2021/11/29 05:37:59;;;;;;;;;;;;;;;0.11;88.14;95181.53;5095029;28;20296;-73
2021/11/29 05:40:25;;;;;;;;;;;;;;;0.15;88.36;95187.91;5094547;28;19957;-73
2021/11/29 05:42:51;;;;;;;;;;;;;;;0.19;88.38;95194.31;5094466;28;19959;-73
2021/11/29 05:45:17;;;;;;;;;;;;;;;0.20;88.22;95193.31;5094363;28;19971;-73
2021/11/29 05:47:43;;;;;;;;;;;;;;;0.20;87.76;95206.19;5094495;28;19977;-73
2021/11/29 05:50:11;;;;;;;;;;;;;;;0.16;88.27;95203.19;5094591;28;19950;-73
2021/11/29 05:52:37;;;;;;;;;;;;;;;0.17;88.51;95216.88;5094165;28;19971;-73
2021/11/29 05:55:04;;;;;;;;;;;;;;;0.16;88.39;95216.06;5094201;28;20342;-73
2021/11/29 05:57:33;;;;;;;;;;;;;;;0.15;87.92;95221.44;5094401;28;19961;-73
2021/11/29 05:59:59;;;;;;;;;;;;;;;0.05;88.05;95229.44;5094844;28;19956;-73
2021/11/29 06:02:25;;;;;;;;;;;;;;;0.03;88.36;95226.25;5076534;28;19971;-73
2021/11/29 06:04:54;;;;;;;;;;;;;;;0.03;88.66;95235.75;5094102;28;19988;-74
2021/11/29 06:07:20;;;;;;;;;;;;;;;0.01;88.40;95235.16;5094200;28;19947;-73
2021/11/29 06:09:46;;;;;;;;;;;;;;;-0.05;88.59;95240.03;5094114;28;19957;-73
2021/11/29 06:12:12;;;;;;;;;;;;;;;-0.08;88.75;95242.19;5094183;28;19967;-74
2021/11/29 06:14:38;;;;;;;;;;;;;;;-0.11;88.99;95252.84;5094203;28;19958;-74
2021/11/29 06:17:04;;;;;;;;;;;;;;;-0.13;89.09;95250.44;5093823;28;20342;-73
2021/11/29 06:19:29;;;;;;;;;;;;;;;-0.11;89.90;95250.25;5094281;28;19960;-73
2021/11/29 06:21:55;;;;;;;;;;;;;;;-0.08;90.19;95263.59;5075849;28;20112;-73
2021/11/29 06:24:21;;;;;;;;;;;;;;;-0.02;89.78;95256.94;5075721;28;19956;-74
2021/11/29 06:26:47;;;;;;;;;;;;;;;-0.06;88.17;95260.84;5094043;28;19957;-73
2021/11/29 06:29:13;;;;;;;;;;;;;;;-0.16;87.52;95271.44;5093765;28;20451;-73
2021/11/29 06:31:39;;;;;;;;;;;;;;;-0.29;87.60;95272.06;5092747;28;19947;-73
2021/11/29 06:34:05;;;;;;;;;;;;;;;-0.39;87.64;95274.09;5093954;28;20004;-74
2021/11/29 06:36:31;;;;;;;;;;;;;;;-0.41;87.52;95283.78;5093678;28;20321;-73
2021/11/29 06:38:57;;;;;;;;;;;;;;;-0.42;88.16;95289.91;5093673;28;19962;-74
2021/11/29 06:41:24;;;;;;;;;;;;;;;-0.41;88.64;95294.09;5093659;28;19959;-74
2021/11/29 06:43:50;;;;;;;;;;;;;;;-0.36;88.96;95296.91;5093728;28;19972;-74
2021/11/29 06:46:16;;;;;;;;;;;;;;;-0.34;88.38;95300.13;5094167;28;20052;-73
2021/11/29 06:48:43;;;;;;;;;;;;;;;-0.31;88.24;95309.28;5093610;28;19960;-73
2021/11/29 06:51:09;;;;;;;;;;;;;;;-0.30;88.60;95305.72;5093603;28;19960;-73
2021/11/29 06:53:40;;;;;;;;;;;;;;;-0.24;88.68;95310.16;5093298;28;19982;-73
2021/11/29 06:56:06;;;;;;;;;;;;;;;-0.21;88.39;95304.63;5093606;28;19961;-75
2021/11/29 06:58:33;;;;;;;;;;;;;;;-0.16;88.04;95315.22;5093524;28;19957;-73
2021/11/29 07:00:59;;;;;;;;;;;;;;;-0.18;86.41;95318.97;5093788;28;19961;-73
2021/11/29 07:03:25;;;;;;;;;;;;;;;-0.27;86.30;95324.22;5093182;28;19971;-73
2021/11/29 07:05:53;;;;;;;;;;;;;;;-0.33;86.54;95322.34;5096267;28;19955;-73
2021/11/29 07:08:23;;;;;;;;;;;;;;;-0.33;87.44;95337.78;5097377;28;19955;-73
2021/11/29 07:10:50;;;;;;;;;;;;;;;-0.27;87.61;95339.66;5097699;28;19954;-73
2021/11/29 07:13:16;;;;;;;;;;;;;;;-0.19;87.47;95343.13;5096384;28;19953;-73
2021/11/29 07:15:44;;;;;;;;;;;;;;;-0.10;87.52;95354.94;5097277;28;19960;-73
2021/11/29 07:18:10;;;;;;;;;;;;;;;-0.04;86.95;95362.75;5097794;28;19960;-73
2021/11/29 07:20:36;;;;;;;;;;;;;;;0.02;86.52;95363.00;5097156;28;19954;-73
2021/11/29 07:23:03;;;;;;;;;;;;;;;0.04;86.90;95363.63;5096522;28;19960;-74
2021/11/29 07:25:29;;;;;;;;;;;;;;;0.12;86.90;95372.06;5097017;28;20104;-73
2021/11/29 07:27:55;;;;;;;;;;;;;;;0.23;86.65;95380.34;5097281;28;20053;-73
2021/11/29 07:30:21;;;;;;;;;;;;;;;0.29;86.52;95383.00;5097195;28;20337;-73
2021/11/29 07:32:48;;;;;;;;;;;;;;;0.37;86.01;95385.47;5097132;28;20322;-73
2021/11/29 07:35:15;;;;;;;;;;;;;;;0.44;86.22;95395.84;5097203;28;19955;-73
2021/11/29 07:37:42;;;;;;;;;;;;;;;0.52;85.78;95392.38;5096845;28;19961;-73
2021/11/29 07:40:08;;;;;;;;;;;;;;;0.65;85.87;95400.31;5096083;28;19961;-74
2021/11/29 07:42:35;;;;;;;;;;;;;;;0.80;85.50;95413.94;5096905;28;20333;-75
2021/11/29 07:45:02;;;;;;;;;;;;;;;0.80;83.41;95415.75;5096539;28;19961;-73
2021/11/29 07:47:28;;;;;;;;;;;;;;;0.77;84.37;95419.47;5078714;28;19951;-73
2021/11/29 07:49:54;;;;;;;;;;;;;;;0.73;83.94;95431.13;5096937;28;19963;-73
2021/11/29 07:52:20;;;;;;;;;;;;;;;0.67;83.61;95425.91;5096630;28;19965;-74
2021/11/29 07:54:46;;;;;;;;;;;;;;;0.62;84.02;95438.56;5096586;28;19984;-73
2021/11/29 07:57:14;;;;;;;;;;;;;;;0.57;83.28;95441.69;5096784;28;19968;-73
2021/11/29 07:59:42;;;;;;;;;;;;;;;0.49;83.98;95441.78;5096511;28;19947;-73
2021/11/29 08:02:09;;;;;;;;;;;;;;;0.46;84.53;95445.47;5096736;28;19960;-73
2021/11/29 08:04:34;;;;;;;;;;;;;;;0.46;84.29;95455.00;5096368;28;19970;-74
2021/11/29 08:07:00;;;;;;;;;;;;;;;0.49;84.70;95459.81;5096351;28;20004;-74
2021/11/29 08:09:26;;;;;;;;;;;;;;;0.50;84.87;95461.41;5096629;28;20430;-73
2021/11/29 08:11:53;;;;;;;;;;;;;;;0.53;84.40;95461.06;5096099;28;19970;-74
2021/11/29 08:14:19;;;;;;;;;;;;;;;0.51;82.96;95463.81;5095313;28;19972;-74
2021/11/29 08:16:44;;;;;;;;;;;;;;;0.53;83.53;95466.22;5096100;28;19959;-73
2021/11/29 08:19:10;;;;;;;;;;;;;;;0.59;84.47;95481.00;5096257;28;19965;-74
2021/11/29 08:21:36;;;;;;;;;;;;;;;0.63;83.83;95469.34;5096111;28;19958;-73
2021/11/29 08:24:02;;;;;;;;;;;;;;;0.65;82.60;95475.13;5095939;28;19962;-73
2021/11/29 08:26:28;;;;;;;;;;;;;;;0.89;93.35;95471.41;5096221;28;19962;-72
2021/11/29 08:28:57;;;;;;;;;;;;;;;1.02;84.46;95478.50;5094449;28;19956;-73
2021/11/29 08:31:23;;;;;;;;;;;;;;;1.00;82.83;95480.47;5095959;28;20399;-73
2021/11/29 08:33:49;;;;;;;;;;;;;;;0.98;82.37;95490.97;5095765;28;19953;-73
2021/11/29 08:36:15;;;;;;;;;;;;;;;0.99;81.99;95492.59;5095636;28;19957;-72
2021/11/29 08:38:41;;;;;;;;;;;;;;;0.99;81.91;95494.38;5095775;28;19956;-73
2021/11/29 08:41:07;;;;;;;;;;;;;;;1.13;82.01;95497.88;5077628;28;19955;-73
2021/11/29 08:43:33;;;;;;;;;;;;;;;1.42;81.67;95499.59;5095899;28;19958;-73
2021/11/29 08:45:59;;;;;;;;;;;;;;;1.71;81.77;95498.66;5095719;28;20005;-72
2021/11/29 08:48:25;;;;;;;;;;;;;;;1.92;79.89;95494.47;5094974;28;20399;-73
2021/11/29 08:50:52;;;;;;;;;;;;;;;1.94;79.77;95501.03;5095430;28;19948;-73
2021/11/29 08:53:20;;;;;;;;;;;;;;;2.08;79.24;95507.13;5095244;28;20406;-73
2021/11/29 08:55:47;;;;;;;;;;;;;;;2.33;78.39;95511.84;5095766;28;20424;-73
2021/11/29 08:58:13;;;;;;;;;;;;;;;2.48;77.32;95517.75;5095324;28;19965;-73
2021/11/29 09:00:41;;;;;;;;;;;;;;;2.65;77.63;95518.25;5095304;28;19956;-73
2021/11/29 09:03:08;;;;;;;;;;;;;;;2.83;77.03;95520.31;5095158;28;19959;-73
2021/11/29 09:05:40;;;;;;;;;;;;;;;2.95;75.39;95523.16;5095162;28;19987;-73
2021/11/29 09:08:06;;;;;;;;;;;;;;;2.98;74.38;95531.34;5094918;28;19961;-73
2021/11/29 09:10:32;;;;;;;;;;;;;;;3.13;75.42;95530.38;5095126;28;20011;-72
2021/11/29 09:12:58;;;;;;;;;;;;;;;3.25;74.00;95531.44;5094958;28;19960;-73
2021/11/29 09:15:24;;;;;;;;;;;;;;;3.19;71.70;95539.97;5095073;28;19974;-73
2021/11/29 09:17:50;;;;;;;;;;;;;;;3.20;72.77;95549.38;5076578;28;19963;-73
2021/11/29 09:20:18;;;;;;;;;;;;;;;3.34;73.90;95548.44;5094911;28;19952;-73
2021/11/29 09:22:45;;;;;;;;;;;;;;;3.45;73.40;95549.66;5094914;28;19973;-73
2021/11/29 09:25:12;;;;;;;;;;;;;;;3.46;72.64;95553.84;5094494;28;19965;-73
2021/11/29 09:27:38;;;;;;;;;;;;;;;3.45;72.71;95557.44;5094136;28;19956;-73
2021/11/29 09:30:08;;;;;;;;;;;;;;;3.49;72.81;95563.03;5093246;28;19973;-73
2021/11/29 09:32:37;;;;;;;;;;;;;;;3.66;70.60;95556.50;5094542;28;19953;-73
2021/11/29 09:35:21;;;;;;;;;;;;;;;3.73;72.63;95570.25;5094622;28;19959;-73
2021/11/29 09:37:48;;;;;;;;;;;;;;;3.94;74.28;95568.50;5067486;28;20396;-73
2021/11/29 09:40:22;;;;;;;;;;;;;;;4.14;74.58;95560.75;5094784;28;19979;-73
2021/11/29 09:42:49;;;;;;;;;;;;;;;4.30;73.18;95573.31;5094182;28;20042;-73
2021/11/29 09:45:19;;;;;;;;;;;;;;;4.39;72.79;95566.94;5094399;28;19972;-73
2021/11/29 09:47:45;;;;;;;;;;;;;;;4.52;71.43;95563.53;5094458;28;19959;-73
2021/11/29 09:50:12;;;;;;;;;;;;;;;4.61;71.78;95564.91;5094772;28;20009;-74
2021/11/29 09:52:41;;;;;;;;;;;;;;;4.69;71.88;95566.50;5094215;28;20406;-73
2021/11/29 09:55:09;;;;;;;;;;;;;;;4.75;71.53;95570.91;5094126;28;20502;-73
2021/11/29 09:57:39;;;;;;;;;;;;;;;4.73;68.98;95564.31;5094295;28;19961;-73
2021/11/29 10:00:07;;;;;;;;;;;;;;;4.65;67.27;95563.50;5094173;28;20317;-73
2021/11/29 10:02:33;;;;;;;;;;;;;;;4.46;68.67;95559.94;5094164;28;19948;-72
2021/11/29 10:04:59;;;;;;;;;;;;;;;4.35;71.76;95575.34;5094102;28;20019;-73
2021/11/29 10:07:29;;;;;;;;;;;;;;;4.33;66.10;95557.34;5094193;28;20006;-73
2021/11/29 10:09:56;;;;;;;;;;;;;;;4.56;69.29;95575.13;5093842;28;19949;-73
2021/11/29 10:12:26;;;;;;;;;;;;;;;4.87;71.30;95573.66;5094001;28;19961;-73
2021/11/29 10:15:14;;;;;;;;;;;;;;;5.05;66.91;95555.63;5093898;28;19951;-72
2021/11/29 10:17:40;;;;;;;;;;;;;;;5.14;69.97;95576.97;5094147;28;19949;-72
2021/11/29 10:20:07;;;;;;;;;;;;;;;5.15;70.75;95583.78;5093971;28;19959;-72
2021/11/29 10:22:33;;;;;;;;;;;;;;;5.06;69.78;95587.59;5093745;28;19954;-73
2021/11/29 10:25:12;;;;;;;;;;;;;;;4.81;67.18;95577.09;5093761;28;20357;-73
2021/11/29 10:27:41;;;;;;;;;;;;;;;4.45;67.66;95588.69;5093997;28;20351;-72
2021/11/29 10:30:07;;;;;;;;;;;;;;;4.16;68.93;95595.88;5092995;28;19948;-72
2021/11/29 10:32:34;;;;;;;;;;;;;;;4.01;71.13;95606.44;5093612;28;20362;-73
2021/11/29 10:35:01;;;;;;;;;;;;;;;3.89;69.99;95591.66;5093742;28;19953;-72
2021/11/29 10:37:29;;;;;;;;;;;;;;;3.75;70.74;95596.78;5093700;28;20329;-72
2021/11/29 10:39:55;;;;;;;;;;;;;;;3.59;70.43;95600.56;5092824;28;19949;-72
2021/11/29 10:42:24;;;;;;;;;;;;;;;3.43;69.85;95601.69;5093740;28;19948;-72
2021/11/29 10:44:53;;;;;;;;;;;;;;;3.21;72.18;95608.78;5075508;28;19966;-72
2021/11/29 10:47:20;;;;;;;;;;;;;;;3.11;73.46;95610.91;5093689;28;19957;-71
2021/11/29 10:49:48;;;;;;;;;;;;;;;2.99;72.24;95607.25;5093768;28;19970;-72
2021/11/29 10:52:18;;;;;;;;;;;;;;;2.90;72.64;95609.19;5093379;28;19951;-72
2021/11/29 10:54:44;;;;;;;;;;;;;;;2.83;73.70;95616.09;5093506;28;19986;-72
2021/11/29 10:57:17;;;;;;;;;;;;;;;2.78;73.27;95619.28;5093768;28;19962;-73
2021/11/29 10:59:44;;;;;;;;;;;;;;;2.63;73.88;95614.19;5074649;28;20032;-72
2021/11/29 11:02:12;;;;;;;;;;;;;;;2.50;74.65;95619.28;5093394;28;20340;-72
2021/11/29 11:04:39;;;;;;;;;;;;;;;2.44;73.48;95626.00;5093825;28;19968;-72
2021/11/29 11:07:20;;;;;;;;;;;;;;;2.39;75.27;95623.19;5075704;28;20330;-72
2021/11/29 11:09:50;;;;;;;;;;;;;;;2.40;73.92;95613.63;5093632;28;19957;-71
2021/11/29 11:12:17;;;;;;;;;;;;;;;2.35;74.50;95624.53;5093410;28;19950;-72
2021/11/29 11:14:50;;;;;;;;;;;;;;;2.38;75.02;95625.94;5093326;28;20343;-72
2021/11/29 11:17:17;;;;;;;;;;;;;;;2.32;73.99;95626.69;5093581;28;19952;-71
2021/11/29 11:19:44;;;;;;;;;;;;;;;2.28;73.94;95638.41;5093641;28;20416;-71
2021/11/29 11:22:29;;;;;;;;;;;;;;;2.23;81.97;95634.56;5093432;28;19955;-72
2021/11/29 11:25:01;;;;;;;;;;;;;;;2.31;72.03;95631.06;5093185;28;19979;-71
2021/11/29 11:27:30;;;;;;;;;;;;;;;2.33;74.62;95648.97;5093217;28;19948;-71
2021/11/29 11:29:57;;;;;;;;;;;;;;;2.40;74.85;95649.84;5093503;28;19957;-72
2021/11/29 11:32:38;;;;;;;;;;;;;;;2.37;74.19;95648.44;5093206;28;19949;-71
2021/11/29 11:35:04;;;;;;;;;;;;;;;2.23;70.99;95655.28;5062502;28;19957;-72
2021/11/29 11:37:34;;;;;;;;;;;;;;;2.20;72.99;95662.59;5093285;28;19960;-72
2021/11/29 11:40:03;;;;;;;;;;;;;;;2.41;73.58;95659.19;5075183;28;19950;-72
2021/11/29 11:42:30;;;;;;;;;;;;;;;2.61;74.20;95659.38;5075316;28;19951;-72
2021/11/29 11:44:56;;;;;;;;;;;;;;;2.69;73.08;95663.59;5093141;28;20049;-72
2021/11/29 11:47:24;;;;;;;;;;;;;;;2.67;72.91;95655.22;5093156;28;19951;-71
2021/11/29 11:49:50;;;;;;;;;;;;;;;2.65;73.04;95660.59;5091783;28;19967;-72
2021/11/29 11:52:19;;;;;;;;;;;;;;;2.73;72.91;95665.66;5096131;28;19947;-72
2021/11/29 11:54:48;;;;;;;;;;;;;;;2.69;69.11;95650.66;5096680;28;19981;-72
2021/11/29 11:57:17;;;;;;;;;;;;;;;2.77;73.73;95666.88;5078783;28;19978;-73
2021/11/29 11:59:54;;;;;;;;;;;;;;;2.74;72.42;95662.06;5068835;28;19960;-72
2021/11/29 12:02:26;;;;;;;;;;;;;;;2.78;71.95;95660.69;5096705;28;19957;-72
2021/11/29 12:05:13;;;;;;;;;;;;;;;2.82;71.64;95667.09;5096876;28;19964;-71
2021/11/29 12:07:39;;;;;;;;;;;;;;;2.87;73.92;95665.75;5052760;28;19953;-71
2021/11/29 12:10:24;;;;;;;;;;;;;;;2.95;72.26;95670.78;5096438;28;19971;-71
2021/11/29 12:13:00;;;;;;;;;;;;;;;2.99;71.89;95670.19;5096097;28;19961;-71
2021/11/29 12:15:37;;;;;;;;;;;;;;;2.95;71.38;95679.34;5096449;28;19947;-71
2021/11/29 12:18:03;;;;;;;;;;;;;;;2.87;71.96;95676.88;5075596;28;19958;-71
2021/11/29 12:20:29;;;;;;;;;;;;;;;2.77;71.66;95679.81;5096130;28;20037;-71
2021/11/29 12:22:56;;;;;;;;;;;;;;;2.68;71.82;95678.34;5095960;28;20325;-71
2021/11/29 12:25:24;;;;;;;;;;;;;;;2.60;70.83;95683.66;5095817;28;19975;-71
2021/11/29 12:27:52;;;;;;;;;;;;;;;2.52;72.56;95678.59;5096384;28;19958;-71
2021/11/29 12:30:32;;;;;;;;;;;;;;;2.40;72.24;95684.28;5096012;28;19945;-71
2021/11/29 12:33:02;;;;;;;;;;;;;;;2.29;70.92;95684.78;5096221;28;19952;-71
2021/11/29 12:35:30;;;;;;;;;;;;;;;2.20;73.18;95693.63;5095887;28;20009;-71
2021/11/29 12:38:06;;;;;;;;;;;;;;;2.11;72.00;95685.19;5095374;28;19973;-71
2021/11/29 12:40:43;;;;;;;;;;;;;;;2.02;72.72;95696.66;5096028;28;19957;-71
2021/11/29 12:43:10;;;;;;;;;;;;;;;1.99;72.66;95700.38;5095632;28;19948;-71
2021/11/29 12:45:36;;;;;;;;;;;;;;;1.94;72.58;95699.34;5095525;28;19977;-72
2021/11/29 12:48:10;;;;;;;;;;;;;;;1.93;73.68;95702.88;5095728;28;19956;-71
2021/11/29 12:50:42;;;;;;;;;;;;;;;1.98;74.65;95713.50;5095659;28;19959;-71
2021/11/29 12:53:10;;;;;;;;;;;;;;;2.61;94.58;95704.19;5095465;28;19949;-71
2021/11/29 12:55:37;;;;;;;;;;;;;;;2.89;73.60;95707.78;5095546;28;19980;-71